Terminal Aerodrome Forecast
Issued by NWS

Home | Current Version | Previous Version | Text Only | Print | Product List | Glossary On
Versions: 1 2 3 4 5 6 7 8 9 10 11 12 13 14 15 16 17 18
185
FTUS45 KFGZ 280648 AAA
TAFPRC
TAF AMD
KPRC 280648Z 2807/2906 VRB05KT P6SM VCTS SCT070CB BKN090
      TEMPO 2807/2808 VRB15G25KT 4SM TSRA BKN060CB OVC090
     FM281900 15009KT P6SM VCSH SCT070 BKN090
     FM290200 VRB05KT P6SM SCT100=

USA.gov is the U.S. government's official web portal to all federal, state and local government web resources and services.